Maldives Meteorological Service

TAFS

Station TAF
VRMM
VRMM 271700Z 2718/2824 07009KT 9000 FEW018 TEMPO 2720/2802 FEW019CB=
VRMH
VRMH 271700Z 2718/2824 05006KT 7000 FEW018 TEMPO 2718/2801 5000 -TSRA SCT018CB=
VRMK
VRMK 271700Z 2718/2818 02006KT 9999 FEW018 SCT120 TEMPO 2719/2724 5000 –SHRA FEW018CB=
VRMT
VRMT 271700Z 2718/2818 02006KT 9999 FEW018TCU BKN120 TEMPO 2718/2724 5000 -TSRA SCT017CB=
VRMG
VRMG 271700Z 2718/2824 05007KT 9999 FEW018TCU BKN120 TEMPO 2718/2802 4000 TSRA SCT017CB=